sensor_id;sensor_type;location;lat;lon;timestamp;P1;durP1;ratioP1;P2;durP2;ratioP2
18340;SDS011;9296;48.084;16.352;2022-12-10T00:00:17;11.40;;;7.22;;
18340;SDS011;9296;48.084;16.352;2022-12-10T00:02:44;11.60;;;7.00;;
18340;SDS011;9296;48.084;16.352;2022-12-10T00:05:11;10.43;;;7.03;;
18340;SDS011;9296;48.084;16.352;2022-12-10T00:07:38;11.43;;;7.17;;
18340;SDS011;9296;48.084;16.352;2022-12-10T00:10:07;11.20;;;6.93;;
18340;SDS011;9296;48.084;16.352;2022-12-10T00:12:34;11.00;;;7.13;;
18340;SDS011;9296;48.084;16.352;2022-12-10T00:18:08;13.20;;;8.07;;
18340;SDS011;9296;48.084;16.352;2022-12-10T00:20:35;11.83;;;7.60;;
18340;SDS011;9296;48.084;16.352;2022-12-10T00:23:03;11.45;;;7.03;;
18340;SDS011;9296;48.084;16.352;2022-12-10T00:25:32;10.97;;;7.13;;
18340;SDS011;9296;48.084;16.352;2022-12-10T00:27:59;12.70;;;7.63;;
18340;SDS011;9296;48.084;16.352;2022-12-10T00:33:30;11.50;;;7.78;;
18340;SDS011;9296;48.084;16.352;2022-12-10T00:36:01;11.65;;;7.38;;
18340;SDS011;9296;48.084;16.352;2022-12-10T00:38:28;11.33;;;7.53;;
18340;SDS011;9296;48.084;16.352;2022-12-10T00:40:58;10.27;;;6.80;;
18340;SDS011;9296;48.084;16.352;2022-12-10T00:43:26;9.95;;;6.88;;
18340;SDS011;9296;48.084;16.352;2022-12-10T00:45:53;10.53;;;6.60;;
18340;SDS011;9296;48.084;16.352;2022-12-10T00:48:20;11.00;;;7.10;;
18340;SDS011;9296;48.084;16.352;2022-12-10T00:50:54;9.67;;;6.67;;
18340;SDS011;9296;48.084;16.352;2022-12-10T00:53:21;10.93;;;7.00;;
18340;SDS011;9296;48.084;16.352;2022-12-10T00:55:48;11.50;;;7.50;;
18340;SDS011;9296;48.084;16.352;2022-12-10T00:58:17;11.80;;;7.50;;
18340;SDS011;9296;48.084;16.352;2022-12-10T01:00:44;10.37;;;6.97;;
18340;SDS011;9296;48.084;16.352;2022-12-10T01:03:11;10.93;;;6.93;;
18340;SDS011;9296;48.084;16.352;2022-12-10T01:05:39;9.10;;;6.70;;
18340;SDS011;9296;48.084;16.352;2022-12-10T01:08:06;10.73;;;6.53;;
18340;SDS011;9296;48.084;16.352;2022-12-10T01:10:34;10.47;;;7.10;;
18340;SDS011;9296;48.084;16.352;2022-12-10T01:13:01;9.77;;;6.37;;
18340;SDS011;9296;48.084;16.352;2022-12-10T01:15:30;9.30;;;6.60;;
18340;SDS011;9296;48.084;16.352;2022-12-10T01:17:57;9.27;;;6.40;;
18340;SDS011;9296;48.084;16.352;2022-12-10T01:20:24;9.40;;;6.57;;
18340;SDS011;9296;48.084;16.352;2022-12-10T01:22:51;8.73;;;6.00;;
18340;SDS011;9296;48.084;16.352;2022-12-10T01:25:19;8.13;;;5.90;;
18340;SDS011;9296;48.084;16.352;2022-12-10T01:27:46;8.80;;;5.87;;
18340;SDS011;9296;48.084;16.352;2022-12-10T01:30:13;9.37;;;6.03;;
18340;SDS011;9296;48.084;16.352;2022-12-10T01:32:42;7.73;;;5.27;;
18340;SDS011;9296;48.084;16.352;2022-12-10T01:35:09;9.07;;;6.20;;
18340;SDS011;9296;48.084;16.352;2022-12-10T01:37:36;9.13;;;6.13;;
18340;SDS011;9296;48.084;16.352;2022-12-10T01:40:04;8.93;;;5.60;;
18340;SDS011;9296;48.084;16.352;2022-12-10T01:42:31;8.20;;;5.67;;
18340;SDS011;9296;48.084;16.352;2022-12-10T01:45:00;8.23;;;5.70;;
18340;SDS011;9296;48.084;16.352;2022-12-10T01:47:27;7.20;;;5.37;;
18340;SDS011;9296;48.084;16.352;2022-12-10T01:49:56;7.93;;;5.97;;
18340;SDS011;9296;48.084;16.352;2022-12-10T01:52:25;8.93;;;5.67;;
18340;SDS011;9296;48.084;16.352;2022-12-10T01:54:53;8.90;;;6.13;;
18340;SDS011;9296;48.084;16.352;2022-12-10T01:57:20;7.93;;;5.65;;
18340;SDS011;9296;48.084;16.352;2022-12-10T01:59:49;8.23;;;5.73;;
18340;SDS011;9296;48.084;16.352;2022-12-10T02:02:20;8.07;;;5.60;;
18340;SDS011;9296;48.084;16.352;2022-12-10T02:04:52;9.37;;;5.47;;
18340;SDS011;9296;48.084;16.352;2022-12-10T02:07:24;8.55;;;5.57;;
18340;SDS011;9296;48.084;16.352;2022-12-10T02:09:55;8.63;;;6.00;;
18340;SDS011;9296;48.084;16.352;2022-12-10T02:12:28;7.53;;;5.33;;
18340;SDS011;9296;48.084;16.352;2022-12-10T02:18:01;8.38;;;5.63;;
18340;SDS011;9296;48.084;16.352;2022-12-10T02:20:30;8.18;;;5.57;;
18340;SDS011;9296;48.084;16.352;2022-12-10T02:23:01;7.87;;;5.93;;
18340;SDS011;9296;48.084;16.352;2022-12-10T02:25:31;9.17;;;5.77;;
18340;SDS011;9296;48.084;16.352;2022-12-10T02:28:01;10.13;;;5.68;;
18340;SDS011;9296;48.084;16.352;2022-12-10T02:30:31;9.38;;;6.10;;
18340;SDS011;9296;48.084;16.352;2022-12-10T02:32:59;8.88;;;5.85;;
18340;SDS011;9296;48.084;16.352;2022-12-10T02:35:30;9.37;;;6.43;;
18340;SDS011;9296;48.084;16.352;2022-12-10T02:37:59;8.95;;;5.90;;
18340;SDS011;9296;48.084;16.352;2022-12-10T02:40:29;9.27;;;6.60;;
18340;SDS011;9296;48.084;16.352;2022-12-10T02:42:57;8.80;;;6.15;;
18340;SDS011;9296;48.084;16.352;2022-12-10T02:45:25;9.80;;;6.43;;
18340;SDS011;9296;48.084;16.352;2022-12-10T02:47:56;9.25;;;6.07;;
18340;SDS011;9296;48.084;16.352;2022-12-10T02:50:24;9.95;;;6.35;;
18340;SDS011;9296;48.084;16.352;2022-12-10T02:52:51;8.05;;;6.00;;
18340;SDS011;9296;48.084;16.352;2022-12-10T02:55:18;10.93;;;6.38;;
18340;SDS011;9296;48.084;16.352;2022-12-10T02:57:49;9.23;;;6.90;;
18340;SDS011;9296;48.084;16.352;2022-12-10T03:03:35;10.13;;;6.60;;
18340;SDS011;9296;48.084;16.352;2022-12-10T03:06:06;9.68;;;6.43;;
18340;SDS011;9296;48.084;16.352;2022-12-10T03:08:38;9.75;;;6.95;;
18340;SDS011;9296;48.084;16.352;2022-12-10T03:11:07;10.32;;;7.30;;
18340;SDS011;9296;48.084;16.352;2022-12-10T03:13:37;11.15;;;7.35;;
18340;SDS011;9296;48.084;16.352;2022-12-10T03:19:11;11.45;;;7.72;;
18340;SDS011;9296;48.084;16.352;2022-12-10T03:21:39;11.85;;;8.00;;
18340;SDS011;9296;48.084;16.352;2022-12-10T03:24:07;10.88;;;7.47;;
18340;SDS011;9296;48.084;16.352;2022-12-10T03:26:36;12.38;;;7.95;;
18340;SDS011;9296;48.084;16.352;2022-12-10T03:35:14;13.73;;;8.53;;
18340;SDS011;9296;48.084;16.352;2022-12-10T03:37:41;11.32;;;7.53;;
18340;SDS011;9296;48.084;16.352;2022-12-10T03:40:09;13.10;;;8.13;;
18340;SDS011;9296;48.084;16.352;2022-12-10T03:42:38;14.33;;;8.83;;
18340;SDS011;9296;48.084;16.352;2022-12-10T03:45:06;13.13;;;8.03;;
18340;SDS011;9296;48.084;16.352;2022-12-10T03:47:33;14.10;;;8.80;;
18340;SDS011;9296;48.084;16.352;2022-12-10T03:50:00;13.50;;;8.73;;
18340;SDS011;9296;48.084;16.352;2022-12-10T03:52:29;13.27;;;8.67;;
18340;SDS011;9296;48.084;16.352;2022-12-10T03:54:56;13.48;;;8.93;;
18340;SDS011;9296;48.084;16.352;2022-12-10T03:57:23;13.60;;;8.70;;
18340;SDS011;9296;48.084;16.352;2022-12-10T04:06:00;13.97;;;8.83;;
18340;SDS011;9296;48.084;16.352;2022-12-10T04:08:29;13.00;;;8.40;;
18340;SDS011;9296;48.084;16.352;2022-12-10T04:11:01;12.83;;;8.60;;
18340;SDS011;9296;48.084;16.352;2022-12-10T04:13:29;13.27;;;8.80;;
18340;SDS011;9296;48.084;16.352;2022-12-10T04:19:18;12.50;;;8.20;;
18340;SDS011;9296;48.084;16.352;2022-12-10T04:21:46;13.95;;;8.80;;
18340;SDS011;9296;48.084;16.352;2022-12-10T04:24:33;12.10;;;8.40;;
18340;SDS011;9296;48.084;16.352;2022-12-10T04:27:19;13.07;;;8.60;;
18340;SDS011;9296;48.084;16.352;2022-12-10T04:35:53;13.47;;;8.23;;
18340;SDS011;9296;48.084;16.352;2022-12-10T04:38:21;12.15;;;8.18;;
18340;SDS011;9296;48.084;16.352;2022-12-10T04:40:49;13.90;;;8.93;;
18340;SDS011;9296;48.084;16.352;2022-12-10T04:43:16;13.10;;;8.65;;
18340;SDS011;9296;48.084;16.352;2022-12-10T04:45:44;13.37;;;8.80;;
18340;SDS011;9296;48.084;16.352;2022-12-10T04:48:11;13.60;;;8.90;;
18340;SDS011;9296;48.084;16.352;2022-12-10T04:50:38;13.82;;;8.95;;
18340;SDS011;9296;48.084;16.352;2022-12-10T04:53:05;13.70;;;9.07;;
18340;SDS011;9296;48.084;16.352;2022-12-10T04:55:33;14.73;;;9.47;;
18340;SDS011;9296;48.084;16.352;2022-12-10T04:58:02;13.07;;;8.77;;
18340;SDS011;9296;48.084;16.352;2022-12-10T05:03:33;15.83;;;9.70;;
18340;SDS011;9296;48.084;16.352;2022-12-10T05:06:01;15.47;;;10.07;;
18340;SDS011;9296;48.084;16.352;2022-12-10T05:08:28;17.47;;;10.03;;
18340;SDS011;9296;48.084;16.352;2022-12-10T05:10:59;16.03;;;10.17;;
18340;SDS011;9296;48.084;16.352;2022-12-10T05:13:29;16.67;;;10.40;;
18340;SDS011;9296;48.084;16.352;2022-12-10T05:15:56;16.88;;;10.88;;
18340;SDS011;9296;48.084;16.352;2022-12-10T05:18:24;14.93;;;10.60;;
18340;SDS011;9296;48.084;16.352;2022-12-10T05:20:51;17.38;;;10.88;;
18340;SDS011;9296;48.084;16.352;2022-12-10T05:23:18;17.73;;;10.73;;
18340;SDS011;9296;48.084;16.352;2022-12-10T05:26:00;17.50;;;10.65;;
18340;SDS011;9296;48.084;16.352;2022-12-10T05:28:29;17.30;;;10.48;;
18340;SDS011;9296;48.084;16.352;2022-12-10T05:30:56;16.63;;;10.27;;
18340;SDS011;9296;48.084;16.352;2022-12-10T05:33:24;15.60;;;10.27;;
18340;SDS011;9296;48.084;16.352;2022-12-10T05:35:52;16.25;;;10.43;;
18340;SDS011;9296;48.084;16.352;2022-12-10T05:38:20;19.70;;;11.27;;
18340;SDS011;9296;48.084;16.352;2022-12-10T05:40:47;18.10;;;11.13;;
18340;SDS011;9296;48.084;16.352;2022-12-10T05:43:14;17.80;;;10.67;;
18340;SDS011;9296;48.084;16.352;2022-12-10T05:45:43;16.33;;;10.87;;
18340;SDS011;9296;48.084;16.352;2022-12-10T05:48:10;18.17;;;11.93;;
18340;SDS011;9296;48.084;16.352;2022-12-10T05:50:37;18.40;;;11.50;;
18340;SDS011;9296;48.084;16.352;2022-12-10T05:53:05;20.90;;;12.20;;
18340;SDS011;9296;48.084;16.352;2022-12-10T05:55:32;18.90;;;11.80;;
18340;SDS011;9296;48.084;16.352;2022-12-10T05:58:00;18.87;;;11.47;;
18340;SDS011;9296;48.084;16.352;2022-12-10T06:03:32;18.27;;;11.00;;
18340;SDS011;9296;48.084;16.352;2022-12-10T06:05:59;19.23;;;12.10;;
18340;SDS011;9296;48.084;16.352;2022-12-10T06:08:26;22.05;;;12.38;;
18340;SDS011;9296;48.084;16.352;2022-12-10T06:10:53;18.05;;;11.25;;
18340;SDS011;9296;48.084;16.352;2022-12-10T06:13:22;19.70;;;11.23;;
18340;SDS011;9296;48.084;16.352;2022-12-10T06:15:50;19.23;;;12.37;;
18340;SDS011;9296;48.084;16.352;2022-12-10T06:18:17;22.17;;;12.63;;
18340;SDS011;9296;48.084;16.352;2022-12-10T06:20:45;20.93;;;12.40;;
18340;SDS011;9296;48.084;16.352;2022-12-10T06:23:13;20.53;;;12.03;;
18340;SDS011;9296;48.084;16.352;2022-12-10T06:25:40;20.95;;;12.43;;
18340;SDS011;9296;48.084;16.352;2022-12-10T06:28:07;22.20;;;12.55;;
18340;SDS011;9296;48.084;16.352;2022-12-10T06:33:38;20.85;;;12.15;;
18340;SDS011;9296;48.084;16.352;2022-12-10T06:36:08;21.20;;;12.07;;
18340;SDS011;9296;48.084;16.352;2022-12-10T06:38:36;21.30;;;12.57;;
18340;SDS011;9296;48.084;16.352;2022-12-10T06:41:04;20.30;;;12.60;;
18340;SDS011;9296;48.084;16.352;2022-12-10T06:43:31;17.97;;;10.70;;
18340;SDS011;9296;48.084;16.352;2022-12-10T06:49:02;21.35;;;12.02;;
18340;SDS011;9296;48.084;16.352;2022-12-10T06:51:32;20.43;;;11.93;;
18340;SDS011;9296;48.084;16.352;2022-12-10T06:53:59;22.80;;;12.65;;
18340;SDS011;9296;48.084;16.352;2022-12-10T06:56:26;19.70;;;12.15;;
18340;SDS011;9296;48.084;16.352;2022-12-10T06:58:53;21.47;;;13.03;;
18340;SDS011;9296;48.084;16.352;2022-12-10T07:04:24;22.15;;;11.93;;
18340;SDS011;9296;48.084;16.352;2022-12-10T07:06:52;19.60;;;11.82;;
18340;SDS011;9296;48.084;16.352;2022-12-10T07:09:19;20.25;;;12.15;;
18340;SDS011;9296;48.084;16.352;2022-12-10T07:11:46;20.48;;;12.13;;
18340;SDS011;9296;48.084;16.352;2022-12-10T07:14:14;20.95;;;12.18;;
18340;SDS011;9296;48.084;16.352;2022-12-10T07:19:45;22.00;;;12.82;;
18340;SDS011;9296;48.084;16.352;2022-12-10T07:22:14;22.05;;;13.18;;
18340;SDS011;9296;48.084;16.352;2022-12-10T07:24:42;21.73;;;12.68;;
18340;SDS011;9296;48.084;16.352;2022-12-10T07:27:09;23.15;;;13.00;;
18340;SDS011;9296;48.084;16.352;2022-12-10T07:29:37;19.85;;;12.10;;
18340;SDS011;9296;48.084;16.352;2022-12-10T07:32:04;20.25;;;12.10;;
18340;SDS011;9296;48.084;16.352;2022-12-10T07:34:31;22.67;;;12.43;;
18340;SDS011;9296;48.084;16.352;2022-12-10T07:36:59;23.90;;;13.53;;
18340;SDS011;9296;48.084;16.352;2022-12-10T07:39:27;22.88;;;13.30;;
18340;SDS011;9296;48.084;16.352;2022-12-10T07:41:55;24.30;;;13.70;;
18340;SDS011;9296;48.084;16.352;2022-12-10T07:44:23;23.48;;;13.32;;
18340;SDS011;9296;48.084;16.352;2022-12-10T07:49:54;24.87;;;14.07;;
18340;SDS011;9296;48.084;16.352;2022-12-10T07:52:21;24.17;;;13.98;;
18340;SDS011;9296;48.084;16.352;2022-12-10T07:54:50;22.77;;;13.77;;
18340;SDS011;9296;48.084;16.352;2022-12-10T07:57:17;23.17;;;12.75;;
18340;SDS011;9296;48.084;16.352;2022-12-10T08:06:00;20.67;;;12.45;;
18340;SDS011;9296;48.084;16.352;2022-12-10T08:08:27;19.85;;;11.68;;
18340;SDS011;9296;48.084;16.352;2022-12-10T08:10:56;19.65;;;12.07;;
18340;SDS011;9296;48.084;16.352;2022-12-10T08:13:25;28.33;;;12.98;;
18340;SDS011;9296;48.084;16.352;2022-12-10T08:15:52;23.95;;;12.25;;
18340;SDS011;9296;48.084;16.352;2022-12-10T08:18:20;24.02;;;12.02;;
18340;SDS011;9296;48.084;16.352;2022-12-10T08:20:47;23.85;;;13.18;;
18340;SDS011;9296;48.084;16.352;2022-12-10T08:23:14;24.27;;;13.07;;
18340;SDS011;9296;48.084;16.352;2022-12-10T08:25:41;22.55;;;12.95;;
18340;SDS011;9296;48.084;16.352;2022-12-10T08:28:10;24.15;;;13.45;;
18340;SDS011;9296;48.084;16.352;2022-12-10T08:33:41;22.88;;;13.07;;
18340;SDS011;9296;48.084;16.352;2022-12-10T08:36:10;22.50;;;13.07;;
18340;SDS011;9296;48.084;16.352;2022-12-10T08:38:37;21.97;;;12.63;;
18340;SDS011;9296;48.084;16.352;2022-12-10T08:41:05;22.77;;;12.85;;
18340;SDS011;9296;48.084;16.352;2022-12-10T08:43:34;23.75;;;13.05;;
18340;SDS011;9296;48.084;16.352;2022-12-10T08:51:54;23.55;;;12.80;;
18340;SDS011;9296;48.084;16.352;2022-12-10T08:54:21;25.42;;;13.57;;
18340;SDS011;9296;48.084;16.352;2022-12-10T08:56:48;25.85;;;14.18;;
18340;SDS011;9296;48.084;16.352;2022-12-10T08:59:17;25.08;;;14.07;;
18340;SDS011;9296;48.084;16.352;2022-12-10T09:04:49;25.85;;;14.05;;
18340;SDS011;9296;48.084;16.352;2022-12-10T09:07:17;25.10;;;14.00;;
18340;SDS011;9296;48.084;16.352;2022-12-10T09:09:45;25.35;;;14.27;;
18340;SDS011;9296;48.084;16.352;2022-12-10T09:12:12;26.20;;;14.18;;
18340;SDS011;9296;48.084;16.352;2022-12-10T09:14:40;24.08;;;13.25;;
18340;SDS011;9296;48.084;16.352;2022-12-10T09:17:08;28.58;;;14.55;;
18340;SDS011;9296;48.084;16.352;2022-12-10T09:19:36;25.85;;;14.18;;
18340;SDS011;9296;48.084;16.352;2022-12-10T09:22:03;28.67;;;15.13;;
18340;SDS011;9296;48.084;16.352;2022-12-10T09:24:30;23.98;;;13.95;;
18340;SDS011;9296;48.084;16.352;2022-12-10T09:26:57;25.83;;;14.77;;
18340;SDS011;9296;48.084;16.352;2022-12-10T09:29:24;27.05;;;15.00;;
18340;SDS011;9296;48.084;16.352;2022-12-10T09:34:56;24.10;;;13.45;;
18340;SDS011;9296;48.084;16.352;2022-12-10T09:37:23;26.65;;;14.68;;
18340;SDS011;9296;48.084;16.352;2022-12-10T09:39:51;31.50;;;15.43;;
18340;SDS011;9296;48.084;16.352;2022-12-10T09:42:21;25.45;;;14.43;;
18340;SDS011;9296;48.084;16.352;2022-12-10T09:44:53;26.58;;;15.00;;
18340;SDS011;9296;48.084;16.352;2022-12-10T09:50:31;25.20;;;14.52;;
18340;SDS011;9296;48.084;16.352;2022-12-10T09:53:01;31.13;;;14.23;;
18340;SDS011;9296;48.084;16.352;2022-12-10T09:55:31;29.67;;;15.43;;
18340;SDS011;9296;48.084;16.352;2022-12-10T09:57:59;25.80;;;14.55;;
18340;SDS011;9296;48.084;16.352;2022-12-10T10:06:35;25.80;;;14.45;;
18340;SDS011;9296;48.084;16.352;2022-12-10T10:09:03;27.40;;;14.98;;
18340;SDS011;9296;48.084;16.352;2022-12-10T10:11:32;24.90;;;14.20;;
18340;SDS011;9296;48.084;16.352;2022-12-10T10:14:01;25.90;;;14.82;;
18340;SDS011;9296;48.084;16.352;2022-12-10T10:16:31;25.85;;;14.40;;
18340;SDS011;9296;48.084;16.352;2022-12-10T10:19:00;26.77;;;15.07;;
18340;SDS011;9296;48.084;16.352;2022-12-10T10:21:28;30.10;;;15.80;;
18340;SDS011;9296;48.084;16.352;2022-12-10T10:23:58;26.20;;;14.93;;
18340;SDS011;9296;48.084;16.352;2022-12-10T10:26:25;23.90;;;13.75;;
18340;SDS011;9296;48.084;16.352;2022-12-10T10:28:54;25.80;;;15.50;;
18340;SDS011;9296;48.084;16.352;2022-12-10T10:31:23;25.17;;;14.65;;
18340;SDS011;9296;48.084;16.352;2022-12-10T10:33:53;27.38;;;15.18;;
18340;SDS011;9296;48.084;16.352;2022-12-10T10:36:24;26.10;;;14.70;;
18340;SDS011;9296;48.084;16.352;2022-12-10T10:38:51;24.98;;;14.80;;
18340;SDS011;9296;48.084;16.352;2022-12-10T10:41:20;29.08;;;15.43;;
18340;SDS011;9296;48.084;16.352;2022-12-10T10:43:51;27.73;;;15.32;;
18340;SDS011;9296;48.084;16.352;2022-12-10T10:49:24;26.70;;;14.95;;
18340;SDS011;9296;48.084;16.352;2022-12-10T10:51:53;28.63;;;16.95;;
18340;SDS011;9296;48.084;16.352;2022-12-10T10:54:31;27.02;;;16.02;;
18340;SDS011;9296;48.084;16.352;2022-12-10T10:57:02;29.55;;;16.38;;
18340;SDS011;9296;48.084;16.352;2022-12-10T10:59:31;25.98;;;15.32;;
18340;SDS011;9296;48.084;16.352;2022-12-10T11:05:04;26.02;;;15.40;;
18340;SDS011;9296;48.084;16.352;2022-12-10T11:07:34;28.55;;;16.27;;
18340;SDS011;9296;48.084;16.352;2022-12-10T11:10:02;28.92;;;16.13;;
18340;SDS011;9296;48.084;16.352;2022-12-10T11:12:36;28.50;;;16.65;;
18340;SDS011;9296;48.084;16.352;2022-12-10T11:15:27;30.65;;;17.38;;
18340;SDS011;9296;48.084;16.352;2022-12-10T11:17:55;31.45;;;16.60;;
18340;SDS011;9296;48.084;16.352;2022-12-10T11:20:23;29.95;;;16.92;;
18340;SDS011;9296;48.084;16.352;2022-12-10T11:22:51;30.27;;;16.58;;
18340;SDS011;9296;48.084;16.352;2022-12-10T11:25:19;32.80;;;16.98;;
18340;SDS011;9296;48.084;16.352;2022-12-10T11:27:51;31.10;;;16.55;;
18340;SDS011;9296;48.084;16.352;2022-12-10T11:30:23;33.35;;;17.42;;
18340;SDS011;9296;48.084;16.352;2022-12-10T11:35:57;31.92;;;17.33;;
18340;SDS011;9296;48.084;16.352;2022-12-10T11:38:27;31.08;;;17.15;;
18340;SDS011;9296;48.084;16.352;2022-12-10T11:40:58;31.95;;;17.48;;
18340;SDS011;9296;48.084;16.352;2022-12-10T11:52:19;31.73;;;16.48;;
18340;SDS011;9296;48.084;16.352;2022-12-10T11:54:51;31.67;;;17.23;;
18340;SDS011;9296;48.084;16.352;2022-12-10T11:57:22;31.33;;;17.20;;
18340;SDS011;9296;48.084;16.352;2022-12-10T11:59:54;32.22;;;17.15;;
18340;SDS011;9296;48.084;16.352;2022-12-10T12:02:27;33.17;;;17.65;;
18340;SDS011;9296;48.084;16.352;2022-12-10T12:05:06;34.08;;;17.58;;
18340;SDS011;9296;48.084;16.352;2022-12-10T12:07:38;34.03;;;18.02;;
18340;SDS011;9296;48.084;16.352;2022-12-10T12:12:53;31.23;;;16.67;;
18340;SDS011;9296;48.084;16.352;2022-12-10T12:15:22;31.95;;;17.38;;
18340;SDS011;9296;48.084;16.352;2022-12-10T12:20:57;30.77;;;16.15;;
18340;SDS011;9296;48.084;16.352;2022-12-10T12:23:28;30.83;;;16.40;;
18340;SDS011;9296;48.084;16.352;2022-12-10T12:25:57;30.52;;;16.75;;
18340;SDS011;9296;48.084;16.352;2022-12-10T12:28:26;31.60;;;16.88;;
18340;SDS011;9296;48.084;16.352;2022-12-10T12:30:58;29.83;;;16.73;;
18340;SDS011;9296;48.084;16.352;2022-12-10T12:33:27;30.33;;;17.38;;
18340;SDS011;9296;48.084;16.352;2022-12-10T12:35:55;30.88;;;16.27;;
18340;SDS011;9296;48.084;16.352;2022-12-10T12:38:28;32.70;;;16.63;;
18340;SDS011;9296;48.084;16.352;2022-12-10T12:40:57;33.85;;;16.90;;
18340;SDS011;9296;48.084;16.352;2022-12-10T12:43:31;33.53;;;17.30;;
18340;SDS011;9296;48.084;16.352;2022-12-10T12:45:59;31.13;;;16.13;;
18340;SDS011;9296;48.084;16.352;2022-12-10T12:48:29;30.65;;;16.40;;
18340;SDS011;9296;48.084;16.352;2022-12-10T12:51:00;32.90;;;16.95;;
18340;SDS011;9296;48.084;16.352;2022-12-10T12:53:30;31.77;;;17.15;;
18340;SDS011;9296;48.084;16.352;2022-12-10T12:55:58;33.85;;;17.48;;
18340;SDS011;9296;48.084;16.352;2022-12-10T12:58:31;33.05;;;17.15;;
18340;SDS011;9296;48.084;16.352;2022-12-10T13:01:03;31.98;;;17.08;;
18340;SDS011;9296;48.084;16.352;2022-12-10T13:03:35;33.78;;;16.83;;
18340;SDS011;9296;48.084;16.352;2022-12-10T13:06:16;31.45;;;15.63;;
18340;SDS011;9296;48.084;16.352;2022-12-10T13:08:47;31.67;;;15.77;;
18340;SDS011;9296;48.084;16.352;2022-12-10T13:11:15;30.98;;;15.70;;
18340;SDS011;9296;48.084;16.352;2022-12-10T13:22:42;32.25;;;16.75;;
18340;SDS011;9296;48.084;16.352;2022-12-10T13:25:13;30.05;;;15.88;;
18340;SDS011;9296;48.084;16.352;2022-12-10T13:27:40;29.42;;;16.15;;
18340;SDS011;9296;48.084;16.352;2022-12-10T13:30:31;30.95;;;16.50;;
18340;SDS011;9296;48.084;16.352;2022-12-10T13:36:03;29.45;;;16.08;;
18340;SDS011;9296;48.084;16.352;2022-12-10T13:38:30;30.00;;;15.50;;
18340;SDS011;9296;48.084;16.352;2022-12-10T13:41:06;30.35;;;16.00;;
18340;SDS011;9296;48.084;16.352;2022-12-10T13:43:52;31.88;;;16.52;;
18340;SDS011;9296;48.084;16.352;2022-12-10T13:46:51;26.95;;;15.05;;
18340;SDS011;9296;48.084;16.352;2022-12-10T13:49:19;29.88;;;15.63;;
18340;SDS011;9296;48.084;16.352;2022-12-10T13:51:50;30.75;;;16.00;;
18340;SDS011;9296;48.084;16.352;2022-12-10T13:54:26;31.70;;;16.63;;
18340;SDS011;9296;48.084;16.352;2022-12-10T13:57:00;30.60;;;15.90;;
18340;SDS011;9296;48.084;16.352;2022-12-10T13:59:31;31.13;;;15.77;;
18340;SDS011;9296;48.084;16.352;2022-12-10T14:08:10;32.85;;;16.40;;
18340;SDS011;9296;48.084;16.352;2022-12-10T14:10:39;30.23;;;16.17;;
18340;SDS011;9296;48.084;16.352;2022-12-10T14:13:11;30.70;;;16.27;;
18340;SDS011;9296;48.084;16.352;2022-12-10T14:15:40;32.08;;;16.65;;
18340;SDS011;9296;48.084;16.352;2022-12-10T14:18:09;31.25;;;16.05;;
18340;SDS011;9296;48.084;16.352;2022-12-10T14:20:38;31.92;;;16.45;;
18340;SDS011;9296;48.084;16.352;2022-12-10T14:23:19;33.20;;;16.00;;
18340;SDS011;9296;48.084;16.352;2022-12-10T14:26:06;33.92;;;17.15;;
18340;SDS011;9296;48.084;16.352;2022-12-10T14:28:39;34.95;;;17.77;;
18340;SDS011;9296;48.084;16.352;2022-12-10T14:31:09;37.05;;;17.52;;
18340;SDS011;9296;48.084;16.352;2022-12-10T14:36:44;32.75;;;16.40;;
18340;SDS011;9296;48.084;16.352;2022-12-10T14:39:12;33.65;;;16.33;;
18340;SDS011;9296;48.084;16.352;2022-12-10T14:41:41;34.70;;;17.13;;
18340;SDS011;9296;48.084;16.352;2022-12-10T14:44:11;35.55;;;17.70;;
18340;SDS011;9296;48.084;16.352;2022-12-10T14:46:40;34.58;;;17.02;;
18340;SDS011;9296;48.084;16.352;2022-12-10T14:49:08;33.63;;;17.10;;
18340;SDS011;9296;48.084;16.352;2022-12-10T14:51:40;33.42;;;16.40;;
18340;SDS011;9296;48.084;16.352;2022-12-10T14:54:22;30.52;;;16.10;;
18340;SDS011;9296;48.084;16.352;2022-12-10T14:56:49;33.15;;;16.35;;
18340;SDS011;9296;48.084;16.352;2022-12-10T14:59:19;34.58;;;17.42;;
18340;SDS011;9296;48.084;16.352;2022-12-10T15:04:51;30.98;;;15.88;;
18340;SDS011;9296;48.084;16.352;2022-12-10T15:07:20;31.88;;;16.90;;
18340;SDS011;9296;48.084;16.352;2022-12-10T15:09:48;34.70;;;18.17;;
18340;SDS011;9296;48.084;16.352;2022-12-10T15:12:27;34.67;;;17.58;;
18340;SDS011;9296;48.084;16.352;2022-12-10T15:14:59;34.00;;;17.20;;
18340;SDS011;9296;48.084;16.352;2022-12-10T15:17:39;35.20;;;17.83;;
18340;SDS011;9296;48.084;16.352;2022-12-10T15:20:18;34.03;;;17.50;;
18340;SDS011;9296;48.084;16.352;2022-12-10T15:22:45;33.97;;;17.37;;
18340;SDS011;9296;48.084;16.352;2022-12-10T15:25:14;32.30;;;17.58;;
18340;SDS011;9296;48.084;16.352;2022-12-10T15:27:51;35.08;;;17.48;;
18340;SDS011;9296;48.084;16.352;2022-12-10T15:30:24;33.67;;;18.25;;
18340;SDS011;9296;48.084;16.352;2022-12-10T15:35:59;35.17;;;17.75;;
18340;SDS011;9296;48.084;16.352;2022-12-10T15:38:27;34.28;;;16.95;;
18340;SDS011;9296;48.084;16.352;2022-12-10T15:40:58;34.63;;;17.17;;
18340;SDS011;9296;48.084;16.352;2022-12-10T15:43:27;36.85;;;17.95;;
18340;SDS011;9296;48.084;16.352;2022-12-10T15:45:56;35.72;;;17.50;;
18340;SDS011;9296;48.084;16.352;2022-12-10T15:51:26;35.85;;;17.50;;
18340;SDS011;9296;48.084;16.352;2022-12-10T15:53:54;35.77;;;17.83;;
18340;SDS011;9296;48.084;16.352;2022-12-10T15:56:21;33.00;;;17.05;;
18340;SDS011;9296;48.084;16.352;2022-12-10T15:58:48;34.50;;;18.00;;
18340;SDS011;9296;48.084;16.352;2022-12-10T16:01:17;34.90;;;16.85;;
18340;SDS011;9296;48.084;16.352;2022-12-10T16:06:48;35.73;;;17.93;;
18340;SDS011;9296;48.084;16.352;2022-12-10T16:09:15;36.72;;;18.13;;
18340;SDS011;9296;48.084;16.352;2022-12-10T16:11:42;37.10;;;18.53;;
18340;SDS011;9296;48.084;16.352;2022-12-10T16:14:09;37.30;;;17.85;;
18340;SDS011;9296;48.084;16.352;2022-12-10T16:16:39;37.37;;;18.87;;
18340;SDS011;9296;48.084;16.352;2022-12-10T16:22:27;36.13;;;17.70;;
18340;SDS011;9296;48.084;16.352;2022-12-10T16:24:54;36.45;;;18.92;;
18340;SDS011;9296;48.084;16.352;2022-12-10T16:27:21;35.55;;;18.42;;
18340;SDS011;9296;48.084;16.352;2022-12-10T16:29:48;35.13;;;17.98;;
18340;SDS011;9296;48.084;16.352;2022-12-10T16:32:17;37.13;;;18.30;;
18340;SDS011;9296;48.084;16.352;2022-12-10T16:34:45;33.50;;;17.90;;
18340;SDS011;9296;48.084;16.352;2022-12-10T16:37:13;32.53;;;17.17;;
18340;SDS011;9296;48.084;16.352;2022-12-10T16:39:40;35.00;;;17.80;;
18340;SDS011;9296;48.084;16.352;2022-12-10T16:42:08;38.83;;;18.43;;
18340;SDS011;9296;48.084;16.352;2022-12-10T16:44:36;33.55;;;17.50;;
18340;SDS011;9296;48.084;16.352;2022-12-10T16:50:08;35.83;;;17.60;;
18340;SDS011;9296;48.084;16.352;2022-12-10T16:52:36;36.17;;;18.20;;
18340;SDS011;9296;48.084;16.352;2022-12-10T16:55:03;40.27;;;19.03;;
18340;SDS011;9296;48.084;16.352;2022-12-10T16:57:31;39.30;;;19.33;;
18340;SDS011;9296;48.084;16.352;2022-12-10T16:59:58;38.90;;;18.50;;
18340;SDS011;9296;48.084;16.352;2022-12-10T17:05:50;38.83;;;18.83;;
18340;SDS011;9296;48.084;16.352;2022-12-10T17:08:18;41.07;;;19.40;;
18340;SDS011;9296;48.084;16.352;2022-12-10T17:10:45;38.50;;;18.07;;
18340;SDS011;9296;48.084;16.352;2022-12-10T17:13:30;38.70;;;18.77;;